createdAt,value
2023-08-09T00:00:16.183Z,70.900000
2023-08-09T00:05:16.112Z,70.800000
2023-08-09T00:10:18.238Z,70.700000
2023-08-09T00:15:24.263Z,70.800000
2023-08-09T00:20:18.100Z,70.700000
2023-08-09T00:25:24.462Z,70.700000
2023-08-09T00:30:18.100Z,70.800000
2023-08-09T00:35:24.367Z,70.800000
2023-08-09T00:40:24.354Z,70.800000
2023-08-09T00:45:24.304Z,70.700000
2023-08-09T00:50:24.339Z,70.800000
2023-08-09T00:55:16.140Z,70.700000
2023-08-09T01:00:18.088Z,70.700000
2023-08-09T01:05:18.124Z,70.700000
2023-08-09T01:10:18.114Z,70.600000
2023-08-09T01:15:24.425Z,70.600000
2023-08-09T01:20:24.374Z,70.600000
2023-08-09T01:25:24.362Z,70.600000
2023-08-09T01:30:18.200Z,70.500000
2023-08-09T01:35:18.158Z,70.400000
2023-08-09T01:40:18.163Z,70.500000
2023-08-09T01:45:16.302Z,70.500000
2023-08-09T01:50:16.220Z,70.400000
2023-08-09T01:55:18.243Z,70.400000
2023-08-09T02:00:18.188Z,70.300000
2023-08-09T02:05:24.496Z,70.200000
2023-08-09T02:10:18.225Z,70.300000
2023-08-09T02:15:18.216Z,70.100000
2023-08-09T02:20:18.322Z,70.100000
2023-08-09T02:25:24.426Z,70.000000
2023-08-09T02:30:24.420Z,69.900000
2023-08-09T02:35:24.457Z,69.700000
2023-08-09T02:40:16.287Z,69.700000
2023-08-09T02:45:16.410Z,69.500000
2023-08-09T02:50:24.508Z,69.500000
2023-08-09T02:55:18.221Z,69.500000
2023-08-09T03:00:18.386Z,69.500000
2023-08-09T03:05:24.499Z,69.400000
2023-08-09T03:10:24.471Z,69.500000
2023-08-09T03:15:24.478Z,69.400000
2023-08-09T03:20:18.257Z,69.400000
2023-08-09T03:25:18.272Z,69.300000
2023-08-09T03:30:16.444Z,69.400000
2023-08-09T03:35:16.349Z,69.400000
2023-08-09T03:40:18.329Z,69.300000
2023-08-09T03:45:24.665Z,69.200000
2023-08-09T03:50:18.300Z,69.100000
2023-08-09T03:55:18.362Z,69.000000
2023-08-09T04:00:24.156Z,69.100000
2023-08-09T04:05:23.772Z,69.100000
2023-08-09T04:10:23.841Z,69.000000
2023-08-09T04:15:23.784Z,69.000000
2023-08-09T04:20:23.800Z,69.000000
2023-08-09T04:25:23.824Z,68.900000
2023-08-09T04:30:17.652Z,68.900000
2023-08-09T04:35:17.800Z,68.900000
2023-08-09T04:40:15.598Z,68.900000
2023-08-09T04:45:15.569Z,68.900000
2023-08-09T04:50:23.890Z,68.800000
2023-08-09T04:55:23.849Z,68.700000
2023-08-09T05:00:17.671Z,68.700000
2023-08-09T05:05:24.057Z,68.600000
2023-08-09T05:10:23.881Z,68.700000
2023-08-09T05:15:17.584Z,68.600000
2023-08-09T05:20:24.016Z,68.500000
2023-08-09T05:25:23.875Z,68.500000
2023-08-09T05:30:17.737Z,68.500000
2023-08-09T05:35:15.661Z,68.400000
2023-08-09T05:40:24.053Z,68.300000
2023-08-09T05:45:17.701Z,68.300000
2023-08-09T05:50:17.705Z,68.200000
2023-08-09T05:55:23.938Z,68.100000
2023-08-09T06:00:17.787Z,68.100000
2023-08-09T06:05:17.712Z,67.900000
2023-08-09T06:11:22.784Z,67.900000
2023-08-09T06:15:23.920Z,67.900000
2023-08-09T06:20:17.704Z,68.000000
2023-08-09T06:25:15.807Z,68.000000
2023-08-09T06:30:15.869Z,68.000000
2023-08-09T06:35:17.835Z,68.100000
2023-08-09T06:40:23.996Z,68.100000
2023-08-09T06:45:24.018Z,68.100000
2023-08-09T06:50:24.092Z,68.100000
2023-08-09T06:55:17.757Z,68.100000
2023-08-09T07:00:17.885Z,68.100000
2023-08-09T07:05:17.805Z,68.100000
2023-08-09T07:10:17.738Z,68.100000
2023-08-09T07:15:17.817Z,68.100000
2023-08-09T07:20:16.052Z,68.200000
2023-08-09T07:25:15.920Z,68.400000
2023-08-09T07:30:17.855Z,68.500000
2023-08-09T07:35:24.252Z,68.500000
2023-08-09T07:40:17.972Z,68.600000
2023-08-09T07:45:24.010Z,68.600000
2023-08-09T07:50:24.015Z,68.500000
2023-08-09T07:55:18.040Z,68.500000
2023-08-09T08:00:26.581Z,68.500000
2023-08-09T08:05:17.864Z,68.400000
2023-08-09T08:10:15.986Z,68.300000
2023-08-09T08:15:15.891Z,68.300000
2023-08-09T08:20:24.217Z,68.300000
2023-08-09T08:25:24.185Z,68.200000
2023-08-09T08:30:17.950Z,68.300000
2023-08-09T08:35:24.050Z,68.300000
2023-08-09T08:40:24.389Z,68.300000
2023-08-09T08:45:24.149Z,68.300000
2023-08-09T08:50:18.013Z,68.300000
2023-08-09T08:55:24.163Z,68.200000
2023-08-09T09:00:26.112Z,68.200000
2023-08-09T09:05:16.001Z,68.200000
2023-08-09T09:10:15.971Z,68.200000
2023-08-09T09:15:24.557Z,68.300000
2023-08-09T09:20:24.228Z,68.100000
2023-08-09T09:25:17.949Z,68.100000
2023-08-09T09:30:17.993Z,68.200000
2023-08-09T09:35:24.346Z,68.300000
2023-08-09T09:40:24.316Z,68.500000
2023-08-09T09:45:24.362Z,68.800000
2023-08-09T09:50:24.205Z,68.900000
2023-08-09T09:55:24.410Z,69.100000
2023-08-09T10:00:16.239Z,69.300000
2023-08-09T10:05:24.401Z,69.300000
2023-08-09T10:10:18.070Z,69.200000
2023-08-09T10:15:17.986Z,69.200000
2023-08-09T10:20:24.322Z,69.100000
2023-08-09T10:25:18.089Z,69.000000
2023-08-09T10:30:24.410Z,68.900000
2023-08-09T10:35:24.265Z,68.900000
2023-08-09T10:40:18.111Z,69.100000
2023-08-09T10:45:24.402Z,69.100000
2023-08-09T10:50:16.157Z,69.300000
2023-08-09T10:55:16.129Z,69.400000
2023-08-09T11:00:24.329Z,69.500000
2023-08-09T11:05:24.294Z,69.700000
2023-08-09T11:10:24.340Z,69.900000
2023-08-09T11:15:18.078Z,70.300000
2023-08-09T11:20:18.132Z,70.500000
2023-08-09T11:25:24.377Z,70.400000
2023-08-09T11:30:18.181Z,70.400000
2023-08-09T11:35:24.461Z,70.300000
2023-08-09T11:40:24.903Z,70.400000
2023-08-09T11:45:16.610Z,70.400000
2023-08-09T11:50:16.237Z,70.300000
2023-08-09T11:55:18.553Z,70.300000
2023-08-09T12:00:24.466Z,70.300000
2023-08-09T12:05:24.453Z,70.400000
2023-08-09T12:10:24.412Z,70.500000
2023-08-09T12:15:24.386Z,70.600000
2023-08-09T12:20:24.437Z,70.500000
2023-08-09T12:25:18.153Z,70.700000
2023-08-09T12:30:18.279Z,70.800000
2023-08-09T12:35:16.289Z,71.000000
2023-08-09T12:40:16.289Z,70.900000
2023-08-09T12:45:24.533Z,71.000000
2023-08-09T12:50:18.233Z,71.100000
2023-08-09T12:55:24.625Z,71.100000
2023-08-09T13:00:18.315Z,71.100000
2023-08-09T13:05:24.497Z,71.000000
2023-08-09T13:10:18.273Z,70.900000
2023-08-09T13:15:18.371Z,70.900000
2023-08-09T13:20:18.197Z,71.000000
2023-08-09T13:25:18.226Z,71.200000
2023-08-09T13:30:16.399Z,71.200000
2023-08-09T13:35:16.468Z,71.500000
2023-08-09T13:40:24.538Z,71.700000
2023-08-09T13:45:24.591Z,71.800000
2023-08-09T13:50:24.529Z,71.900000
2023-08-09T13:55:24.506Z,72.200000
2023-08-09T14:00:18.315Z,72.100000
2023-08-09T14:05:24.699Z,72.100000
2023-08-09T14:10:18.205Z,72.200000
2023-08-09T14:15:24.590Z,72.100000
2023-08-09T14:20:24.717Z,72.300000
2023-08-09T14:25:16.367Z,72.500000
2023-08-09T14:30:18.324Z,72.400000
2023-08-09T14:35:24.600Z,72.300000
2023-08-09T14:40:24.790Z,72.600000
2023-08-09T14:45:18.432Z,72.800000
2023-08-09T14:50:18.359Z,73.100000
2023-08-09T14:55:18.336Z,73.100000
2023-08-09T15:00:24.758Z,73.400000
2023-08-09T15:05:24.677Z,73.400000
2023-08-09T15:10:18.425Z,73.400000
2023-08-09T15:15:16.413Z,73.500000
2023-08-09T15:20:16.374Z,73.600000
2023-08-09T15:25:24.623Z,73.700000
2023-08-09T15:30:24.733Z,73.900000
2023-08-09T15:35:18.366Z,74.100000
2023-08-09T15:40:18.610Z,74.300000
2023-08-09T15:45:24.795Z,74.500000
2023-08-09T15:50:18.726Z,74.700000
2023-08-09T15:55:18.564Z,74.800000
2023-08-09T16:00:24.802Z,75.000000
2023-08-09T16:05:18.563Z,75.000000
2023-08-09T16:10:16.619Z,75.100000
2023-08-09T16:15:16.593Z,75.300000
2023-08-09T16:20:24.753Z,75.600000
2023-08-09T16:25:24.716Z,75.800000
2023-08-09T16:30:18.516Z,75.900000
2023-08-09T16:35:24.756Z,76.100000
2023-08-09T16:40:18.545Z,76.200000
2023-08-09T16:45:24.780Z,76.500000
2023-08-09T16:50:18.569Z,76.700000
2023-08-09T16:55:24.824Z,76.800000
2023-08-09T17:00:16.641Z,76.900000
2023-08-09T17:05:16.731Z,77.100000
2023-08-09T17:10:24.914Z,77.000000
2023-08-09T17:15:24.839Z,77.200000
2023-08-09T17:20:24.817Z,77.300000
2023-08-09T17:25:24.751Z,77.400000
2023-08-09T17:30:25.022Z,77.400000
2023-08-09T17:35:18.908Z,77.600000
2023-08-09T17:40:24.843Z,77.600000
2023-08-09T17:45:24.840Z,77.700000
2023-08-09T17:50:18.620Z,77.800000
2023-08-09T17:55:16.770Z,78.000000
2023-08-09T18:00:16.640Z,77.900000
2023-08-09T18:05:24.849Z,78.100000
2023-08-09T18:10:18.776Z,77.900000
2023-08-09T18:15:18.650Z,78.000000
2023-08-09T18:20:18.761Z,78.200000
2023-08-09T18:25:25.024Z,78.300000
2023-08-09T18:30:24.888Z,78.400000
2023-08-09T18:35:19.013Z,78.400000
2023-08-09T18:40:24.965Z,78.300000
2023-08-09T18:45:18.813Z,78.300000
2023-08-09T18:50:16.750Z,78.300000
2023-08-09T18:55:17.042Z,78.500000
2023-08-09T19:00:18.776Z,78.600000
2023-08-09T19:05:18.778Z,78.500000
2023-08-09T19:10:18.751Z,78.600000
2023-08-09T19:15:25.196Z,78.900000
2023-08-09T19:20:25.033Z,79.300000
2023-08-09T19:25:18.711Z,79.500000
2023-08-09T19:30:18.822Z,79.500000
2023-08-09T19:35:25.014Z,79.400000
2023-08-09T19:40:16.863Z,79.600000
2023-08-09T19:45:16.869Z,79.900000
2023-08-09T19:50:18.825Z,79.900000
2023-08-09T19:55:18.807Z,80.100000
2023-08-09T20:00:25.084Z,80.200000
2023-08-09T20:05:18.795Z,80.300000
2023-08-09T20:10:18.797Z,80.300000
2023-08-09T20:15:25.065Z,80.200000
2023-08-09T20:20:25.164Z,80.000000
2023-08-09T20:25:25.082Z,80.100000
2023-08-09T20:30:24.925Z,80.100000
2023-08-09T20:35:16.890Z,80.000000
2023-08-09T20:40:16.899Z,80.000000
2023-08-09T20:45:25.074Z,79.900000
2023-08-09T20:50:18.954Z,80.000000
2023-08-09T20:55:25.279Z,79.900000
2023-08-09T21:00:18.895Z,79.800000
2023-08-09T21:05:18.885Z,79.800000
2023-08-09T21:10:18.856Z,79.900000
2023-08-09T21:15:18.907Z,80.000000
2023-08-09T21:20:18.906Z,79.900000
2023-08-09T21:30:16.888Z,79.900000
2023-08-09T21:35:18.987Z,79.900000
2023-08-09T21:40:18.957Z,80.000000
2023-08-09T21:45:18.930Z,79.900000
2023-08-09T21:50:18.972Z,79.900000
2023-08-09T21:55:18.959Z,79.800000
2023-08-09T22:00:25.393Z,79.800000
2023-08-09T22:05:18.930Z,79.700000
2023-08-09T22:10:18.911Z,79.600000
2023-08-09T22:15:19.054Z,79.600000
2023-08-09T22:20:17.002Z,79.500000
2023-08-09T22:25:17.083Z,79.500000
2023-08-09T22:30:25.356Z,79.400000
2023-08-09T22:35:25.208Z,79.100000
2023-08-09T22:40:19.048Z,78.900000
2023-08-09T22:45:25.276Z,78.700000
2023-08-09T22:50:18.972Z,78.500000
2023-08-09T22:55:18.924Z,78.200000
2023-08-09T23:00:25.229Z,78.000000
2023-08-09T23:05:19.099Z,77.800000
2023-08-09T23:10:19.050Z,77.500000
2023-08-09T23:15:17.096Z,77.100000
2023-08-09T23:20:19.159Z,76.700000
2023-08-09T23:25:25.414Z,76.500000
2023-08-09T23:30:25.174Z,76.100000
2023-08-09T23:35:25.313Z,75.800000
2023-08-09T23:40:19.102Z,75.700000
2023-08-09T23:45:25.430Z,75.300000
2023-08-09T23:50:19.092Z,75.100000
2023-08-09T23:55:25.407Z,74.800000
